sensor_id;sensor_type;location;lat;lon;timestamp;temperature;humidity
7290;DHT22;63176;52.678;13.250;2022-10-17T00:01:21;11.80;99.90
7290;DHT22;63176;52.678;13.250;2022-10-17T00:03:47;11.80;99.90
7290;DHT22;63176;52.678;13.250;2022-10-17T00:06:14;11.90;99.90
7290;DHT22;63176;52.678;13.250;2022-10-17T00:08:40;11.90;99.90
7290;DHT22;63176;52.678;13.250;2022-10-17T00:11:19;11.90;99.90
7290;DHT22;63176;52.678;13.250;2022-10-17T00:13:48;11.90;99.90
7290;DHT22;63176;52.678;13.250;2022-10-17T00:16:15;11.90;99.90
7290;DHT22;63176;52.678;13.250;2022-10-17T00:18:41;12.00;99.90
7290;DHT22;63176;52.678;13.250;2022-10-17T00:21:14;12.00;99.90
7290;DHT22;63176;52.678;13.250;2022-10-17T00:23:40;12.00;99.90
7290;DHT22;63176;52.678;13.250;2022-10-17T00:26:06;12.00;99.90
7290;DHT22;63176;52.678;13.250;2022-10-17T00:28:32;12.00;99.90
7290;DHT22;63176;52.678;13.250;2022-10-17T00:31:00;11.90;99.90
7290;DHT22;63176;52.678;13.250;2022-10-17T00:33:27;12.00;99.90
7290;DHT22;63176;52.678;13.250;2022-10-17T00:36:11;12.00;99.90
7290;DHT22;63176;52.678;13.250;2022-10-17T00:38:39;12.00;99.90
7290;DHT22;63176;52.678;13.250;2022-10-17T00:41:07;11.90;99.90
7290;DHT22;63176;52.678;13.250;2022-10-17T00:46:26;11.90;99.90
7290;DHT22;63176;52.678;13.250;2022-10-17T00:48:53;11.90;99.90
7290;DHT22;63176;52.678;13.250;2022-10-17T00:51:24;11.90;99.90
7290;DHT22;63176;52.678;13.250;2022-10-17T00:53:51;11.90;99.90
7290;DHT22;63176;52.678;13.250;2022-10-17T00:56:18;12.00;99.90
7290;DHT22;63176;52.678;13.250;2022-10-17T00:58:45;12.00;99.90
7290;DHT22;63176;52.678;13.250;2022-10-17T01:01:11;12.00;99.90
7290;DHT22;63176;52.678;13.250;2022-10-17T01:03:36;12.10;99.90
7290;DHT22;63176;52.678;13.250;2022-10-17T01:06:02;12.10;99.90
7290;DHT22;63176;52.678;13.250;2022-10-17T01:08:28;12.10;99.90
7290;DHT22;63176;52.678;13.250;2022-10-17T01:13:43;12.10;99.90
7290;DHT22;63176;52.678;13.250;2022-10-17T01:21:55;12.10;99.90
7290;DHT22;63176;52.678;13.250;2022-10-17T01:27:49;12.10;99.90
7290;DHT22;63176;52.678;13.250;2022-10-17T01:33:08;12.20;1.00
7290;DHT22;63176;52.678;13.250;2022-10-17T01:35:49;12.20;1.00
7290;DHT22;63176;52.678;13.250;2022-10-17T01:38:41;12.20;1.00
7290;DHT22;63176;52.678;13.250;2022-10-17T01:41:26;12.20;1.00
7290;DHT22;63176;52.678;13.250;2022-10-17T01:44:12;12.20;1.00
7290;DHT22;63176;52.678;13.250;2022-10-17T01:46:53;12.20;1.00
7290;DHT22;63176;52.678;13.250;2022-10-17T01:49:23;12.20;1.00
7290;DHT22;63176;52.678;13.250;2022-10-17T01:52:18;12.20;1.00
7290;DHT22;63176;52.678;13.250;2022-10-17T01:54:57;12.10;1.00
7290;DHT22;63176;52.678;13.250;2022-10-17T01:57:36;12.10;1.00
7290;DHT22;63176;52.678;13.250;2022-10-17T02:00:07;12.00;1.00
7290;DHT22;63176;52.678;13.250;2022-10-17T02:02:34;12.00;1.00
7290;DHT22;63176;52.678;13.250;2022-10-17T02:05:01;12.00;1.00
7290;DHT22;63176;52.678;13.250;2022-10-17T02:07:27;12.00;1.00
7290;DHT22;63176;52.678;13.250;2022-10-17T02:09:52;12.00;1.00
7290;DHT22;63176;52.678;13.250;2022-10-17T02:20:34;11.90;1.00
7290;DHT22;63176;52.678;13.250;2022-10-17T02:26:01;11.90;1.00
7290;DHT22;63176;52.678;13.250;2022-10-17T02:29:00;11.90;1.00
7290;DHT22;63176;52.678;13.250;2022-10-17T02:31:30;12.00;1.00
7290;DHT22;63176;52.678;13.250;2022-10-17T02:34:04;12.00;1.00
7290;DHT22;63176;52.678;13.250;2022-10-17T02:36:44;12.10;1.00
7290;DHT22;63176;52.678;13.250;2022-10-17T02:39:10;12.10;1.00
7290;DHT22;63176;52.678;13.250;2022-10-17T02:41:39;12.20;1.00
7290;DHT22;63176;52.678;13.250;2022-10-17T02:44:06;12.30;1.00
7290;DHT22;63176;52.678;13.250;2022-10-17T02:46:33;12.30;1.00
7290;DHT22;63176;52.678;13.250;2022-10-17T02:49:05;12.40;1.00
7290;DHT22;63176;52.678;13.250;2022-10-17T02:51:41;12.40;1.00
7290;DHT22;63176;52.678;13.250;2022-10-17T02:54:22;12.50;1.00
7290;DHT22;63176;52.678;13.250;2022-10-17T02:57:22;12.50;1.00
7290;DHT22;63176;52.678;13.250;2022-10-17T02:59:50;12.60;1.00
7290;DHT22;63176;52.678;13.250;2022-10-17T03:02:17;12.60;1.00
7290;DHT22;63176;52.678;13.250;2022-10-17T03:04:45;12.60;1.00
7290;DHT22;63176;52.678;13.250;2022-10-17T03:07:11;12.70;1.00
7290;DHT22;63176;52.678;13.250;2022-10-17T03:09:37;12.60;1.00
7290;DHT22;63176;52.678;13.250;2022-10-17T03:12:03;12.60;1.00
7290;DHT22;63176;52.678;13.250;2022-10-17T03:14:29;12.70;1.00
7290;DHT22;63176;52.678;13.250;2022-10-17T03:16:54;12.70;1.00
7290;DHT22;63176;52.678;13.250;2022-10-17T03:19:20;12.60;1.00
7290;DHT22;63176;52.678;13.250;2022-10-17T03:21:46;12.60;1.00
7290;DHT22;63176;52.678;13.250;2022-10-17T03:24:11;12.60;1.00
7290;DHT22;63176;52.678;13.250;2022-10-17T03:26:37;12.70;1.00
7290;DHT22;63176;52.678;13.250;2022-10-17T03:29:03;12.60;1.00
7290;DHT22;63176;52.678;13.250;2022-10-17T03:31:28;12.70;1.00
7290;DHT22;63176;52.678;13.250;2022-10-17T03:33:54;12.70;1.00
7290;DHT22;63176;52.678;13.250;2022-10-17T03:36:20;12.70;1.00
7290;DHT22;63176;52.678;13.250;2022-10-17T03:38:46;12.80;1.00
7290;DHT22;63176;52.678;13.250;2022-10-17T03:41:12;12.80;1.00
7290;DHT22;63176;52.678;13.250;2022-10-17T03:43:38;12.80;1.00
7290;DHT22;63176;52.678;13.250;2022-10-17T03:46:04;12.80;1.00
7290;DHT22;63176;52.678;13.250;2022-10-17T03:48:30;12.80;1.00
7290;DHT22;63176;52.678;13.250;2022-10-17T03:51:04;12.80;1.00
7290;DHT22;63176;52.678;13.250;2022-10-17T03:53:30;12.80;1.00
7290;DHT22;63176;52.678;13.250;2022-10-17T03:55:56;12.70;1.00
7290;DHT22;63176;52.678;13.250;2022-10-17T03:58:22;12.70;1.00
7290;DHT22;63176;52.678;13.250;2022-10-17T04:00:48;12.70;1.00
7290;DHT22;63176;52.678;13.250;2022-10-17T04:03:13;12.70;1.00
7290;DHT22;63176;52.678;13.250;2022-10-17T04:05:39;12.70;1.00
7290;DHT22;63176;52.678;13.250;2022-10-17T04:08:05;12.60;1.00
7290;DHT22;63176;52.678;13.250;2022-10-17T04:10:30;12.60;1.00
7290;DHT22;63176;52.678;13.250;2022-10-17T04:12:56;12.60;1.00
7290;DHT22;63176;52.678;13.250;2022-10-17T04:15:22;12.60;1.00
7290;DHT22;63176;52.678;13.250;2022-10-17T04:17:47;12.60;1.00
7290;DHT22;63176;52.678;13.250;2022-10-17T04:20:13;12.60;1.00
7290;DHT22;63176;52.678;13.250;2022-10-17T04:22:39;12.60;1.00
7290;DHT22;63176;52.678;13.250;2022-10-17T04:25:04;12.50;1.00
7290;DHT22;63176;52.678;13.250;2022-10-17T04:27:30;12.50;1.00
7290;DHT22;63176;52.678;13.250;2022-10-17T04:29:56;12.50;1.00
7290;DHT22;63176;52.678;13.250;2022-10-17T04:32:21;12.50;1.00
7290;DHT22;63176;52.678;13.250;2022-10-17T04:34:48;12.50;1.00
7290;DHT22;63176;52.678;13.250;2022-10-17T04:37:14;12.50;1.00
7290;DHT22;63176;52.678;13.250;2022-10-17T04:39:40;12.50;1.00
7290;DHT22;63176;52.678;13.250;2022-10-17T04:42:05;12.50;1.00
7290;DHT22;63176;52.678;13.250;2022-10-17T04:44:31;12.50;1.00
7290;DHT22;63176;52.678;13.250;2022-10-17T04:46:58;12.60;1.00
7290;DHT22;63176;52.678;13.250;2022-10-17T04:49:24;12.50;1.00
7290;DHT22;63176;52.678;13.250;2022-10-17T04:51:49;12.50;1.00
7290;DHT22;63176;52.678;13.250;2022-10-17T04:54:15;12.50;1.00
7290;DHT22;63176;52.678;13.250;2022-10-17T04:56:40;12.50;1.00
7290;DHT22;63176;52.678;13.250;2022-10-17T04:59:06;12.60;1.00
7290;DHT22;63176;52.678;13.250;2022-10-17T05:01:32;12.50;1.00
7290;DHT22;63176;52.678;13.250;2022-10-17T05:03:57;12.60;1.00
7290;DHT22;63176;52.678;13.250;2022-10-17T05:06:24;12.50;1.00
7290;DHT22;63176;52.678;13.250;2022-10-17T05:08:52;12.60;1.00
7290;DHT22;63176;52.678;13.250;2022-10-17T05:11:27;12.60;1.00
7290;DHT22;63176;52.678;13.250;2022-10-17T05:13:58;12.60;1.00
7290;DHT22;63176;52.678;13.250;2022-10-17T05:16:25;12.60;1.00
7290;DHT22;63176;52.678;13.250;2022-10-17T05:18:53;12.60;1.00
7290;DHT22;63176;52.678;13.250;2022-10-17T05:21:20;12.60;1.00
7290;DHT22;63176;52.678;13.250;2022-10-17T05:23:46;12.60;1.00
7290;DHT22;63176;52.678;13.250;2022-10-17T05:26:12;12.60;80.80
7290;DHT22;63176;52.678;13.250;2022-10-17T05:28:38;12.60;99.90
7290;DHT22;63176;52.678;13.250;2022-10-17T05:31:04;12.60;99.90
7290;DHT22;63176;52.678;13.250;2022-10-17T05:33:30;12.60;99.90
7290;DHT22;63176;52.678;13.250;2022-10-17T05:35:57;12.60;99.90
7290;DHT22;63176;52.678;13.250;2022-10-17T05:38:22;12.60;99.90
7290;DHT22;63176;52.678;13.250;2022-10-17T05:40:48;12.60;1.00
7290;DHT22;63176;52.678;13.250;2022-10-17T05:43:14;12.70;1.00
7290;DHT22;63176;52.678;13.250;2022-10-17T05:45:40;12.70;1.00
7290;DHT22;63176;52.678;13.250;2022-10-17T05:48:05;12.70;1.00
7290;DHT22;63176;52.678;13.250;2022-10-17T05:50:33;12.70;1.00
7290;DHT22;63176;52.678;13.250;2022-10-17T05:52:59;12.60;1.00
7290;DHT22;63176;52.678;13.250;2022-10-17T05:55:24;12.70;1.00
7290;DHT22;63176;52.678;13.250;2022-10-17T05:57:50;12.70;1.00
7290;DHT22;63176;52.678;13.250;2022-10-17T06:00:19;12.70;1.00
7290;DHT22;63176;52.678;13.250;2022-10-17T06:02:45;12.70;1.00
7290;DHT22;63176;52.678;13.250;2022-10-17T06:05:11;12.70;1.00
7290;DHT22;63176;52.678;13.250;2022-10-17T06:07:37;12.70;1.00
7290;DHT22;63176;52.678;13.250;2022-10-17T06:10:03;12.70;16.10
7290;DHT22;63176;52.678;13.250;2022-10-17T06:12:29;12.70;14.60
7290;DHT22;63176;52.678;13.250;2022-10-17T06:14:54;12.70;88.50
7290;DHT22;63176;52.678;13.250;2022-10-17T06:17:20;12.70;99.90
7290;DHT22;63176;52.678;13.250;2022-10-17T06:19:46;12.70;99.90
7290;DHT22;63176;52.678;13.250;2022-10-17T06:22:12;12.70;99.90
7290;DHT22;63176;52.678;13.250;2022-10-17T06:24:38;12.70;99.90
7290;DHT22;63176;52.678;13.250;2022-10-17T06:27:04;12.70;99.90
7290;DHT22;63176;52.678;13.250;2022-10-17T06:29:29;12.70;1.00
7290;DHT22;63176;52.678;13.250;2022-10-17T06:31:55;12.80;1.00
7290;DHT22;63176;52.678;13.250;2022-10-17T06:34:21;12.80;1.00
7290;DHT22;63176;52.678;13.250;2022-10-17T06:36:47;12.80;1.00
7290;DHT22;63176;52.678;13.250;2022-10-17T06:39:13;12.90;1.00
7290;DHT22;63176;52.678;13.250;2022-10-17T06:41:39;12.90;1.00
7290;DHT22;63176;52.678;13.250;2022-10-17T06:44:06;13.00;99.90
7290;DHT22;63176;52.678;13.250;2022-10-17T06:46:36;13.00;99.90
7290;DHT22;63176;52.678;13.250;2022-10-17T06:49:02;13.10;99.90
7290;DHT22;63176;52.678;13.250;2022-10-17T06:51:30;13.10;99.90
7290;DHT22;63176;52.678;13.250;2022-10-17T06:53:56;13.10;99.90
7290;DHT22;63176;52.678;13.250;2022-10-17T06:56:22;13.20;1.00
7290;DHT22;63176;52.678;13.250;2022-10-17T06:58:48;13.30;1.00
7290;DHT22;63176;52.678;13.250;2022-10-17T07:01:16;13.30;1.00
7290;DHT22;63176;52.678;13.250;2022-10-17T07:03:41;13.40;1.00
7290;DHT22;63176;52.678;13.250;2022-10-17T07:06:08;13.30;1.00
7290;DHT22;63176;52.678;13.250;2022-10-17T07:08:36;13.40;1.00
7290;DHT22;63176;52.678;13.250;2022-10-17T07:11:12;13.40;1.00
7290;DHT22;63176;52.678;13.250;2022-10-17T07:13:38;13.60;1.00
7290;DHT22;63176;52.678;13.250;2022-10-17T07:16:04;13.70;75.60
7290;DHT22;63176;52.678;13.250;2022-10-17T07:18:30;13.90;99.90
7290;DHT22;63176;52.678;13.250;2022-10-17T07:20:55;14.10;99.90
7290;DHT22;63176;52.678;13.250;2022-10-17T07:23:22;14.30;99.90
7290;DHT22;63176;52.678;13.250;2022-10-17T07:25:48;14.40;99.90
7290;DHT22;63176;52.678;13.250;2022-10-17T07:28:14;14.50;1.00
7290;DHT22;63176;52.678;13.250;2022-10-17T07:30:40;14.50;1.00
7290;DHT22;63176;52.678;13.250;2022-10-17T07:33:06;14.60;64.40
7290;DHT22;63176;52.678;13.250;2022-10-17T07:35:32;14.60;1.00
7290;DHT22;63176;52.678;13.250;2022-10-17T07:37:57;14.60;99.90
7290;DHT22;63176;52.678;13.250;2022-10-17T07:40:23;14.70;99.90
7290;DHT22;63176;52.678;13.250;2022-10-17T07:42:49;14.80;1.00
7290;DHT22;63176;52.678;13.250;2022-10-17T07:45:14;14.90;1.00
7290;DHT22;63176;52.678;13.250;2022-10-17T07:47:40;15.00;99.90
7290;DHT22;63176;52.678;13.250;2022-10-17T07:50:06;15.20;99.90
7290;DHT22;63176;52.678;13.250;2022-10-17T07:52:32;15.40;1.00
7290;DHT22;63176;52.678;13.250;2022-10-17T07:54:58;15.60;1.00
7290;DHT22;63176;52.678;13.250;2022-10-17T07:57:24;15.70;99.90
7290;DHT22;63176;52.678;13.250;2022-10-17T07:59:49;16.00;65.10
7290;DHT22;63176;52.678;13.250;2022-10-17T08:02:23;16.20;1.00
7290;DHT22;63176;52.678;13.250;2022-10-17T08:04:50;16.30;1.00
7290;DHT22;63176;52.678;13.250;2022-10-17T08:07:16;16.40;1.00
7290;DHT22;63176;52.678;13.250;2022-10-17T08:09:42;16.50;1.00
7290;DHT22;63176;52.678;13.250;2022-10-17T08:12:09;16.70;1.00
7290;DHT22;63176;52.678;13.250;2022-10-17T08:14:35;16.90;99.90
7290;DHT22;63176;52.678;13.250;2022-10-17T08:17:00;17.20;99.90
7290;DHT22;63176;52.678;13.250;2022-10-17T08:19:26;17.40;99.90
7290;DHT22;63176;52.678;13.250;2022-10-17T08:21:51;17.70;99.90
7290;DHT22;63176;52.678;13.250;2022-10-17T08:24:19;18.10;99.90
7290;DHT22;63176;52.678;13.250;2022-10-17T08:26:44;18.40;99.90
7290;DHT22;63176;52.678;13.250;2022-10-17T08:29:14;18.50;99.90
7290;DHT22;63176;52.678;13.250;2022-10-17T08:31:40;18.50;99.90
7290;DHT22;63176;52.678;13.250;2022-10-17T08:34:06;18.50;99.90
7290;DHT22;63176;52.678;13.250;2022-10-17T08:36:32;18.30;99.90
7290;DHT22;63176;52.678;13.250;2022-10-17T08:38:57;18.10;99.90
7290;DHT22;63176;52.678;13.250;2022-10-17T08:46:45;17.50;99.90
7290;DHT22;63176;52.678;13.250;2022-10-17T08:49:19;17.40;99.90
7290;DHT22;63176;52.678;13.250;2022-10-17T08:51:53;17.30;99.90
7290;DHT22;63176;52.678;13.250;2022-10-17T08:54:34;17.30;99.90
7290;DHT22;63176;52.678;13.250;2022-10-17T08:57:01;17.30;99.90
7290;DHT22;63176;52.678;13.250;2022-10-17T08:59:28;17.30;99.90
7290;DHT22;63176;52.678;13.250;2022-10-17T09:04:44;17.40;99.90
7290;DHT22;63176;52.678;13.250;2022-10-17T09:07:21;17.40;99.90
7290;DHT22;63176;52.678;13.250;2022-10-17T09:20:27;17.90;99.90
7290;DHT22;63176;52.678;13.250;2022-10-17T09:22:58;18.10;99.90
7290;DHT22;63176;52.678;13.250;2022-10-17T09:25:26;18.10;99.90
7290;DHT22;63176;52.678;13.250;2022-10-17T09:30:47;18.20;99.90
7290;DHT22;63176;52.678;13.250;2022-10-17T09:33:19;18.20;99.90
7290;DHT22;63176;52.678;13.250;2022-10-17T09:35:46;18.30;99.90
7290;DHT22;63176;52.678;13.250;2022-10-17T09:38:21;18.40;99.90
7290;DHT22;63176;52.678;13.250;2022-10-17T09:40:56;18.50;99.90
7290;DHT22;63176;52.678;13.250;2022-10-17T09:43:22;18.50;99.90
7290;DHT22;63176;52.678;13.250;2022-10-17T09:46:07;18.50;99.90
7290;DHT22;63176;52.678;13.250;2022-10-17T09:48:45;18.60;99.90
7290;DHT22;63176;52.678;13.250;2022-10-17T09:51:12;18.70;99.90
7290;DHT22;63176;52.678;13.250;2022-10-17T09:53:41;18.70;99.90
7290;DHT22;63176;52.678;13.250;2022-10-17T09:56:14;18.60;99.90
7290;DHT22;63176;52.678;13.250;2022-10-17T09:58:46;18.70;99.90
7290;DHT22;63176;52.678;13.250;2022-10-17T10:01:24;18.90;99.90
7290;DHT22;63176;52.678;13.250;2022-10-17T10:04:13;19.00;99.90
7290;DHT22;63176;52.678;13.250;2022-10-17T10:06:40;19.00;99.90
7290;DHT22;63176;52.678;13.250;2022-10-17T10:09:21;19.00;99.90
7290;DHT22;63176;52.678;13.250;2022-10-17T10:11:51;19.10;99.90
7290;DHT22;63176;52.678;13.250;2022-10-17T10:14:29;19.10;99.90
7290;DHT22;63176;52.678;13.250;2022-10-17T10:16:59;19.20;99.90
7290;DHT22;63176;52.678;13.250;2022-10-17T10:22:02;19.30;99.90
7290;DHT22;63176;52.678;13.250;2022-10-17T10:24:28;19.30;99.90
7290;DHT22;63176;52.678;13.250;2022-10-17T10:26:57;19.40;99.90
7290;DHT22;63176;52.678;13.250;2022-10-17T10:29:35;19.40;99.90
7290;DHT22;63176;52.678;13.250;2022-10-17T10:34:59;19.40;99.90
7290;DHT22;63176;52.678;13.250;2022-10-17T10:37:35;19.40;99.90
7290;DHT22;63176;52.678;13.250;2022-10-17T10:40:26;19.50;99.90
7290;DHT22;63176;52.678;13.250;2022-10-17T10:42:51;19.60;99.90
7290;DHT22;63176;52.678;13.250;2022-10-17T10:45:22;19.60;99.90
7290;DHT22;63176;52.678;13.250;2022-10-17T10:50:56;19.60;99.90
7290;DHT22;63176;52.678;13.250;2022-10-17T10:58:58;19.60;99.90
7290;DHT22;63176;52.678;13.250;2022-10-17T11:04:22;19.80;99.90
7290;DHT22;63176;52.678;13.250;2022-10-17T11:06:56;20.10;99.90
7290;DHT22;63176;52.678;13.250;2022-10-17T11:12:20;20.30;99.90
7290;DHT22;63176;52.678;13.250;2022-10-17T11:15:15;20.30;99.90
7290;DHT22;63176;52.678;13.250;2022-10-17T11:17:56;20.20;99.90
7290;DHT22;63176;52.678;13.250;2022-10-17T11:23:27;20.00;99.90
7290;DHT22;63176;52.678;13.250;2022-10-17T11:25:57;20.00;99.90
7290;DHT22;63176;52.678;13.250;2022-10-17T11:28:23;20.00;99.90
7290;DHT22;63176;52.678;13.250;2022-10-17T11:31:03;20.00;99.90
7290;DHT22;63176;52.678;13.250;2022-10-17T11:36:20;19.90;99.90
7290;DHT22;63176;52.678;13.250;2022-10-17T11:39:13;19.90;99.90
7290;DHT22;63176;52.678;13.250;2022-10-17T11:41:49;20.00;99.90
7290;DHT22;63176;52.678;13.250;2022-10-17T11:44:33;20.10;99.90
7290;DHT22;63176;52.678;13.250;2022-10-17T11:47:10;20.20;99.90
7290;DHT22;63176;52.678;13.250;2022-10-17T11:49:46;20.30;99.90
7290;DHT22;63176;52.678;13.250;2022-10-17T11:52:34;20.30;99.90
7290;DHT22;63176;52.678;13.250;2022-10-17T11:55:09;20.40;99.90
7290;DHT22;63176;52.678;13.250;2022-10-17T12:00:29;20.50;99.90
7290;DHT22;63176;52.678;13.250;2022-10-17T12:03:28;20.60;99.90
7290;DHT22;63176;52.678;13.250;2022-10-17T12:13:53;20.70;99.90
7290;DHT22;63176;52.678;13.250;2022-10-17T12:19:33;20.80;99.90
7290;DHT22;63176;52.678;13.250;2022-10-17T12:24:38;21.00;99.90
7290;DHT22;63176;52.678;13.250;2022-10-17T12:29:49;21.10;99.90
7290;DHT22;63176;52.678;13.250;2022-10-17T12:32:15;21.10;99.90
7290;DHT22;63176;52.678;13.250;2022-10-17T12:34:53;21.10;99.90
7290;DHT22;63176;52.678;13.250;2022-10-17T12:53:59;21.60;99.90
7290;DHT22;63176;52.678;13.250;2022-10-17T12:56:39;21.60;99.90
7290;DHT22;63176;52.678;13.250;2022-10-17T12:59:26;21.70;99.90
7290;DHT22;63176;52.678;13.250;2022-10-17T13:01:58;21.70;99.90
7290;DHT22;63176;52.678;13.250;2022-10-17T13:04:24;21.70;99.90
7290;DHT22;63176;52.678;13.250;2022-10-17T13:06:53;21.70;99.90
7290;DHT22;63176;52.678;13.250;2022-10-17T13:09:31;21.70;99.90
7290;DHT22;63176;52.678;13.250;2022-10-17T13:12:00;21.70;99.90
7290;DHT22;63176;52.678;13.250;2022-10-17T13:14:27;21.70;99.90
7290;DHT22;63176;52.678;13.250;2022-10-17T13:17:02;21.70;99.90
7290;DHT22;63176;52.678;13.250;2022-10-17T13:19:31;21.60;99.90
7290;DHT22;63176;52.678;13.250;2022-10-17T13:22:31;21.50;99.90
7290;DHT22;63176;52.678;13.250;2022-10-17T13:25:11;21.50;99.90
7290;DHT22;63176;52.678;13.250;2022-10-17T13:27:38;21.40;99.90
7290;DHT22;63176;52.678;13.250;2022-10-17T13:30:25;21.30;99.90
7290;DHT22;63176;52.678;13.250;2022-10-17T13:32:51;21.30;99.90
7290;DHT22;63176;52.678;13.250;2022-10-17T13:35:30;21.30;99.90
7290;DHT22;63176;52.678;13.250;2022-10-17T13:37:58;21.30;99.90
7290;DHT22;63176;52.678;13.250;2022-10-17T13:40:29;21.40;99.90
7290;DHT22;63176;52.678;13.250;2022-10-17T13:42:57;21.50;99.90
7290;DHT22;63176;52.678;13.250;2022-10-17T13:47:48;21.50;99.90
7290;DHT22;63176;52.678;13.250;2022-10-17T13:50:36;21.60;99.90
7290;DHT22;63176;52.678;13.250;2022-10-17T13:56:04;21.60;99.90
7290;DHT22;63176;52.678;13.250;2022-10-17T13:58:42;21.70;99.90
7290;DHT22;63176;52.678;13.250;2022-10-17T14:01:08;21.70;99.90
7290;DHT22;63176;52.678;13.250;2022-10-17T14:03:34;21.70;99.90
7290;DHT22;63176;52.678;13.250;2022-10-17T14:06:10;21.80;99.90
7290;DHT22;63176;52.678;13.250;2022-10-17T14:08:37;21.80;99.90
7290;DHT22;63176;52.678;13.250;2022-10-17T14:11:34;21.80;99.90
7290;DHT22;63176;52.678;13.250;2022-10-17T14:13:59;21.70;99.90
7290;DHT22;63176;52.678;13.250;2022-10-17T14:16:31;21.70;99.90
7290;DHT22;63176;52.678;13.250;2022-10-17T14:18:57;21.70;99.90
7290;DHT22;63176;52.678;13.250;2022-10-17T14:21:25;21.60;99.90
7290;DHT22;63176;52.678;13.250;2022-10-17T14:24:12;21.60;99.90
7290;DHT22;63176;52.678;13.250;2022-10-17T14:26:49;21.60;99.90
7290;DHT22;63176;52.678;13.250;2022-10-17T14:34:32;21.60;99.90
7290;DHT22;63176;52.678;13.250;2022-10-17T14:36:59;21.50;99.90
7290;DHT22;63176;52.678;13.250;2022-10-17T14:39:26;21.60;99.90
7290;DHT22;63176;52.678;13.250;2022-10-17T14:41:52;21.50;99.90
7290;DHT22;63176;52.678;13.250;2022-10-17T14:44:27;21.40;99.90
7290;DHT22;63176;52.678;13.250;2022-10-17T14:47:04;21.30;99.90
7290;DHT22;63176;52.678;13.250;2022-10-17T14:49:40;21.20;99.90
7290;DHT22;63176;52.678;13.250;2022-10-17T14:54:44;20.90;99.90
7290;DHT22;63176;52.678;13.250;2022-10-17T14:59:49;20.70;99.90
7290;DHT22;63176;52.678;13.250;2022-10-17T15:02:15;20.70;99.90
7290;DHT22;63176;52.678;13.250;2022-10-17T15:04:41;20.60;99.90
7290;DHT22;63176;52.678;13.250;2022-10-17T15:07:15;20.50;99.90
7290;DHT22;63176;52.678;13.250;2022-10-17T15:09:43;20.30;99.90
7290;DHT22;63176;52.678;13.250;2022-10-17T15:12:17;20.20;99.90
7290;DHT22;63176;52.678;13.250;2022-10-17T15:14:44;20.10;99.90
7290;DHT22;63176;52.678;13.250;2022-10-17T15:17:13;20.10;99.90
7290;DHT22;63176;52.678;13.250;2022-10-17T15:19:39;19.90;99.90
7290;DHT22;63176;52.678;13.250;2022-10-17T15:22:05;19.80;99.90
7290;DHT22;63176;52.678;13.250;2022-10-17T15:24:31;19.70;99.90
7290;DHT22;63176;52.678;13.250;2022-10-17T15:26:56;19.60;99.90
7290;DHT22;63176;52.678;13.250;2022-10-17T15:29:22;19.40;99.90
7290;DHT22;63176;52.678;13.250;2022-10-17T15:31:48;19.30;99.90
7290;DHT22;63176;52.678;13.250;2022-10-17T15:34:13;19.20;99.90
7290;DHT22;63176;52.678;13.250;2022-10-17T15:36:41;19.10;99.90
7290;DHT22;63176;52.678;13.250;2022-10-17T15:39:08;19.00;99.90
7290;DHT22;63176;52.678;13.250;2022-10-17T15:41:34;18.90;99.90
7290;DHT22;63176;52.678;13.250;2022-10-17T15:43:59;18.80;99.90
7290;DHT22;63176;52.678;13.250;2022-10-17T15:46:27;18.70;99.90
7290;DHT22;63176;52.678;13.250;2022-10-17T15:48:54;18.60;99.90
7290;DHT22;63176;52.678;13.250;2022-10-17T15:51:20;18.50;99.90
7290;DHT22;63176;52.678;13.250;2022-10-17T15:53:46;18.40;99.90
7290;DHT22;63176;52.678;13.250;2022-10-17T15:56:56;18.30;99.90
7290;DHT22;63176;52.678;13.250;2022-10-17T15:59:19;18.20;99.90
7290;DHT22;63176;52.678;13.250;2022-10-17T16:01:45;18.10;99.90
7290;DHT22;63176;52.678;13.250;2022-10-17T16:04:13;18.00;99.90
7290;DHT22;63176;52.678;13.250;2022-10-17T16:06:40;17.90;99.90
7290;DHT22;63176;52.678;13.250;2022-10-17T16:09:07;17.80;99.90
7290;DHT22;63176;52.678;13.250;2022-10-17T16:11:36;17.80;99.90
7290;DHT22;63176;52.678;13.250;2022-10-17T16:14:05;17.70;99.90
7290;DHT22;63176;52.678;13.250;2022-10-17T16:16:31;17.60;99.90
7290;DHT22;63176;52.678;13.250;2022-10-17T16:18:57;17.50;99.90
7290;DHT22;63176;52.678;13.250;2022-10-17T16:21:26;17.50;99.90
7290;DHT22;63176;52.678;13.250;2022-10-17T16:23:52;17.40;99.90
7290;DHT22;63176;52.678;13.250;2022-10-17T16:26:18;17.30;99.90
7290;DHT22;63176;52.678;13.250;2022-10-17T16:28:44;17.30;99.90
7290;DHT22;63176;52.678;13.250;2022-10-17T16:31:20;17.20;99.90
7290;DHT22;63176;52.678;13.250;2022-10-17T16:33:47;17.20;99.90
7290;DHT22;63176;52.678;13.250;2022-10-17T16:36:13;17.10;99.90
7290;DHT22;63176;52.678;13.250;2022-10-17T16:38:39;17.10;99.90
7290;DHT22;63176;52.678;13.250;2022-10-17T16:41:08;17.00;99.90
7290;DHT22;63176;52.678;13.250;2022-10-17T16:43:38;17.00;99.90
7290;DHT22;63176;52.678;13.250;2022-10-17T16:46:04;16.90;99.90
7290;DHT22;63176;52.678;13.250;2022-10-17T16:48:30;16.90;99.90
7290;DHT22;63176;52.678;13.250;2022-10-17T16:50:55;16.80;99.90
7290;DHT22;63176;52.678;13.250;2022-10-17T16:53:21;16.80;99.90
7290;DHT22;63176;52.678;13.250;2022-10-17T16:56:01;16.70;99.90
7290;DHT22;63176;52.678;13.250;2022-10-17T16:58:27;16.70;99.90
7290;DHT22;63176;52.678;13.250;2022-10-17T17:00:59;16.70;99.90
7290;DHT22;63176;52.678;13.250;2022-10-17T17:03:25;16.70;99.90
7290;DHT22;63176;52.678;13.250;2022-10-17T17:05:50;16.60;99.90
7290;DHT22;63176;52.678;13.250;2022-10-17T17:08:17;16.60;99.90
7290;DHT22;63176;52.678;13.250;2022-10-17T17:10:46;16.50;99.90
7290;DHT22;63176;52.678;13.250;2022-10-17T17:13:14;16.40;99.90
7290;DHT22;63176;52.678;13.250;2022-10-17T17:15:40;16.40;99.90
7290;DHT22;63176;52.678;13.250;2022-10-17T17:18:06;16.40;99.90
7290;DHT22;63176;52.678;13.250;2022-10-17T17:20:32;16.30;99.90
7290;DHT22;63176;52.678;13.250;2022-10-17T17:22:57;16.30;99.90
7290;DHT22;63176;52.678;13.250;2022-10-17T17:25:23;16.20;99.90
7290;DHT22;63176;52.678;13.250;2022-10-17T17:27:49;16.20;99.90
7290;DHT22;63176;52.678;13.250;2022-10-17T17:30:15;16.10;99.90
7290;DHT22;63176;52.678;13.250;2022-10-17T17:32:40;16.10;99.90
7290;DHT22;63176;52.678;13.250;2022-10-17T17:35:06;16.10;99.90
7290;DHT22;63176;52.678;13.250;2022-10-17T17:37:32;16.00;99.90
7290;DHT22;63176;52.678;13.250;2022-10-17T17:39:58;16.00;99.90
7290;DHT22;63176;52.678;13.250;2022-10-17T17:42:23;15.90;99.90
7290;DHT22;63176;52.678;13.250;2022-10-17T17:44:49;15.90;99.90
7290;DHT22;63176;52.678;13.250;2022-10-17T17:47:14;15.90;99.90
7290;DHT22;63176;52.678;13.250;2022-10-17T17:49:40;15.80;99.90
7290;DHT22;63176;52.678;13.250;2022-10-17T17:52:06;15.80;99.90
7290;DHT22;63176;52.678;13.250;2022-10-17T17:54:31;15.80;99.90
7290;DHT22;63176;52.678;13.250;2022-10-17T17:56:57;15.80;99.90